Time;durP1;ratioP1;P1;durP2;ratioP2;P2;SDS_P1;SDS_P2;PMS_P1;PMS_P2;Temp;Humidity;BMP_temperature;BMP_pressure;BME280_temperature;BME280_humidity;BME280_pressure;Samples;Min_cycle;Max_cycle;Signal;HPM_P1;HPM_P2
2023/12/07 05:51:36;;;;;;;20.35;6.03;;;;;;;4.61;100.00;98223.22;4992452;28;20060;-53
2023/12/07 05:54:07;;;;;;;17.88;5.13;;;;;;;4.63;100.00;98217.13;5001895;28;20152;-53
2023/12/07 05:56:37;;;;;;;17.67;5.32;;;;;;;4.61;100.00;98224.06;4992153;28;20064;-51
2023/12/07 05:59:08;;;;;;;20.55;6.10;;;;;;;4.60;100.00;98201.69;4998598;28;20042;-56
2023/12/07 06:01:39;;;;;;;23.88;6.53;;;;;;;4.56;100.00;98189.72;4990716;28;20367;-50
2023/12/07 06:04:12;;;;;;;17.58;5.30;;;;;;;4.51;100.00;98176.03;5022648;28;20072;-53
2023/12/07 06:06:47;;;;;;;10.40;3.70;;;;;;;4.61;100.00;98177.50;5012969;28;20185;-54
2023/12/07 06:09:18;;;;;;;3.90;1.40;;;;;;;5.15;100.00;98182.09;5023118;28;20054;-55
2023/12/07 06:11:52;;;;;;;3.42;1.30;;;;;;;5.55;100.00;98173.19;5011702;28;20148;-54
2023/12/07 06:14:23;;;;;;;5.18;1.00;;;;;;;5.91;100.00;98159.16;5019785;28;20042;-51
2023/12/07 06:16:54;;;;;;;5.30;1.10;;;;;;;6.03;100.00;98157.06;4996066;28;20054;-51
2023/12/07 06:19:25;;;;;;;2.92;0.82;;;;;;;6.23;100.00;98171.13;5002192;28;20142;-55
2023/12/07 06:21:59;;;;;;;2.67;0.98;;;;;;;6.21;100.00;98141.81;5006143;28;20049;-54
2023/12/07 06:24:29;;;;;;;2.95;1.15;;;;;;;6.38;100.00;98149.88;4996245;28;20582;-54
2023/12/07 06:27:01;;;;;;;4.68;1.60;;;;;;;6.44;100.00;98149.69;5006337;28;20046;-51
2023/12/07 06:29:32;;;;;;;5.57;1.00;;;;;;;6.47;100.00;98144.41;4995696;28;20107;-54
2023/12/07 06:32:03;;;;;;;5.47;1.30;;;;;;;6.52;100.00;98135.63;5005661;28;20053;-54
2023/12/07 06:34:33;;;;;;;3.45;1.10;;;;;;;6.63;100.00;98154.25;4995277;28;20295;-51
2023/12/07 06:37:06;;;;;;;8.15;2.58;;;;;;;6.69;100.00;98136.72;5005790;28;20049;-55
2023/12/07 06:39:36;;;;;;;6.03;3.05;;;;;;;6.68;100.00;98132.44;4996236;28;20079;-55
2023/12/07 06:42:07;;;;;;;9.00;3.60;;;;;;;6.60;100.00;98133.59;5005358;28;20045;-53
2023/12/07 06:44:38;;;;;;;7.75;1.83;;;;;;;6.48;100.00;98125.31;4995540;28;20081;-54
2023/12/07 06:47:08;;;;;;;4.47;1.40;;;;;;;6.50;100.00;98134.81;5005388;28;20119;-54
2023/12/07 06:49:39;;;;;;;3.70;1.35;;;;;;;6.41;100.00;98144.59;4995094;28;20154;-54
2023/12/07 06:52:22;;;;;;;3.10;1.00;;;;;;;6.21;100.00;98144.41;5004923;28;20479;-55
2023/12/07 06:54:53;;;;;;;4.05;1.20;;;;;;;6.08;100.00;98124.97;4994187;28;20053;-55
2023/12/07 06:57:23;;;;;;;3.65;1.20;;;;;;;5.99;100.00;98137.34;5005347;28;20068;-54
2023/12/07 06:59:54;;;;;;;4.90;1.33;;;;;;;5.94;100.00;98118.50;4994233;28;20702;-55
2023/12/07 07:02:25;;;;;;;6.15;1.30;;;;;;;5.95;100.00;98130.53;5000105;28;20053;-55
2023/12/07 07:04:56;;;;;;;6.75;1.67;;;;;;;5.88;100.00;98123.81;5005002;28;20045;-54
2023/12/07 07:07:30;;;;;;;7.38;1.58;;;;;;;5.90;100.00;98132.41;4993335;28;20053;-55
2023/12/07 07:10:01;;;;;;;6.53;1.30;;;;;;;5.80;100.00;98141.38;5005075;28;20375;-55
2023/12/07 07:12:32;;;;;;;6.50;2.60;;;;;;;6.18;100.00;98126.38;4994908;28;20069;-53
2023/12/07 07:15:02;;;;;;;9.35;2.13;;;;;;;6.31;100.00;98132.81;5002506;28;20736;-54
2023/12/07 07:17:33;;;;;;;9.25;2.78;;;;;;;6.03;100.00;98133.72;4994948;28;20053;-53
2023/12/07 07:20:04;;;;;;;12.40;3.60;;;;;;;5.40;100.00;98064.88;5004427;28;20152;-52
2023/12/07 07:22:36;;;;;;;10.45;3.33;;;;;;;5.54;100.00;98117.13;4995106;28;20572;-53
2023/12/07 07:25:07;;;;;;;16.02;3.38;;;;;;;5.37;100.00;98116.78;5004505;28;20140;-52
2023/12/07 07:27:38;;;;;;;16.83;4.43;;;;;;;5.19;100.00;98113.81;4995213;28;20147;-53
2023/12/07 07:30:09;;;;;;;17.30;3.13;;;;;;;5.06;100.00;98122.81;5005448;28;20092;-55
2023/12/07 07:32:40;;;;;;;15.20;3.17;;;;;;;4.97;100.00;98120.50;4994585;28;20490;-52
2023/12/07 07:35:11;;;;;;;21.15;3.28;;;;;;;4.86;100.00;98125.13;5004877;28;20064;-52
2023/12/07 07:37:43;;;;;;;20.15;4.35;;;;;;;4.81;100.00;98132.16;4994514;28;20060;-56
2023/12/07 07:40:14;;;;;;;20.60;3.97;;;;;;;4.75;100.00;98144.38;5005073;28;20060;-53
2023/12/07 07:42:45;;;;;;;20.23;4.20;;;;;;;4.70;100.00;98148.81;4995142;28;20493;-55
2023/12/07 07:45:16;;;;;;;23.30;4.22;;;;;;;4.63;100.00;98134.34;5004931;28;20146;-54
2023/12/07 07:47:46;;;;;;;22.90;5.93;;;;;;;4.58;100.00;98135.38;4995067;28;20059;-53
2023/12/07 07:50:17;;;;;;;28.40;6.38;;;;;;;4.57;100.00;98131.06;5004914;28;20395;-53
2023/12/07 07:52:49;;;;;;;29.50;7.43;;;;;;;4.54;100.00;98116.47;4995082;28;20052;-53
2023/12/07 07:55:19;;;;;;;24.77;5.40;;;;;;;4.56;100.00;98114.72;5004708;28;20501;-52
2023/12/07 07:57:50;;;;;;;17.15;4.32;;;;;;;4.64;100.00;98115.38;4994626;28;20049;-54
2023/12/07 08:00:21;;;;;;;7.18;2.00;;;;;;;5.04;100.00;98103.91;5005058;28;20056;-53
2023/12/07 08:02:51;;;;;;;4.38;1.70;;;;;;;5.53;100.00;98101.59;4993873;28;20045;-54
2023/12/07 08:05:22;;;;;;;6.13;1.20;;;;;;;5.77;100.00;98089.63;5004349;28;20427;-53
2023/12/07 08:07:54;;;;;;;4.63;1.40;;;;;;;5.92;100.00;98109.03;4993688;28;20045;-56
2023/12/07 08:10:25;;;;;;;5.88;1.73;;;;;;;5.90;100.00;98111.66;5001053;28;20113;-54
2023/12/07 08:12:56;;;;;;;5.97;1.38;;;;;;;6.04;100.00;98117.28;5004184;28;20536;-53
2023/12/07 08:15:26;;;;;;;3.40;0.98;;;;;;;6.08;100.00;98118.03;4996283;28;20049;-53
2023/12/07 08:17:58;;;;;;;3.78;0.88;;;;;;;6.08;100.00;98114.59;5003818;28;20498;-56
2023/12/07 08:20:28;;;;;;;4.05;0.80;;;;;;;5.98;100.00;98109.69;4993735;28;20045;-54
2023/12/07 08:23:00;;;;;;;2.17;1.25;;;;;;;5.90;100.00;98137.59;5003818;28;20049;-57
2023/12/07 08:25:31;;;;;;;1.25;0.70;;;;;;;5.79;100.00;98119.78;4988401;28;20053;-57
2023/12/07 08:28:02;;;;;;;2.70;0.70;;;;;;;5.76;100.00;98124.19;5000556;28;20128;-55
2023/12/07 08:30:33;;;;;;;2.45;0.80;;;;;;;5.70;100.00;98130.44;4995187;28;20549;-52
2023/12/07 08:33:03;;;;;;;3.75;0.60;;;;;;;5.72;100.00;98117.44;5004234;28;20048;-55
2023/12/07 08:35:34;;;;;;;2.15;0.80;;;;;;;5.68;100.00;98126.19;4994082;28;20067;-54
2023/12/07 08:38:06;;;;;;;1.60;0.60;;;;;;;5.58;100.00;98120.44;5001974;28;20099;-55
2023/12/07 08:40:37;;;;;;;4.18;0.90;;;;;;;5.53;100.00;98106.78;4993928;28;20123;-53
2023/12/07 08:43:07;;;;;;;3.15;0.90;;;;;;;5.48;100.00;98119.88;5002269;28;20069;-55
2023/12/07 08:45:38;;;;;;;3.53;0.70;;;;;;;5.41;100.00;98092.44;4992833;28;20061;-55
2023/12/07 08:48:08;;;;;;;2.40;0.50;;;;;;;5.38;100.00;98089.97;5002788;28;20222;-55
2023/12/07 08:50:39;;;;;;;2.75;0.57;;;;;;;5.42;100.00;98083.81;4992267;28;20115;-55
2023/12/07 08:53:11;;;;;;;1.00;0.55;;;;;;;5.40;100.00;98062.28;5002421;28;20138;-56
2023/12/07 08:55:42;;;;;;;0.90;0.50;;;;;;;5.40;100.00;98070.06;4990402;28;20081;-54
2023/12/07 08:58:12;;;;;;;0.43;0.43;;;;;;;5.35;100.00;98077.13;5002554;28;20050;-53
2023/12/07 09:00:43;;;;;;;1.85;0.50;;;;;;;5.29;100.00;98077.28;4990543;28;20510;-56
2023/12/07 09:03:14;;;;;;;0.93;0.60;;;;;;;5.26;100.00;98061.84;4999197;28;20050;-55
2023/12/07 09:05:45;;;;;;;2.50;0.60;;;;;;;5.28;100.00;98054.88;4998149;28;20062;-54
2023/12/07 09:08:17;;;;;;;2.50;0.60;;;;;;;5.09;100.00;98023.50;5002549;28;20061;-54
2023/12/07 09:10:49;;;;;;;0.75;0.60;;;;;;;5.38;100.00;98062.31;4993025;28;20053;-55
2023/12/07 09:13:19;;;;;;;1.13;0.40;;;;;;;5.38;100.00;98051.13;5000201;28;20060;-53
2023/12/07 09:15:50;;;;;;;0.82;0.60;;;;;;;5.39;100.00;98047.63;4991678;28;20057;-55
2023/12/07 09:18:21;;;;;;;0.50;0.50;;;;;;;5.41;100.00;98033.72;5000151;28;20120;-54
2023/12/07 09:20:51;;;;;;;0.68;0.60;;;;;;;5.39;100.00;98037.25;4991853;28;20096;-54
2023/12/07 09:23:23;;;;;;;0.50;0.50;;;;;;;5.39;100.00;98032.09;5000553;28;20045;-54
2023/12/07 09:25:54;;;;;;;0.90;0.50;;;;;;;5.41;100.00;98019.94;4992329;28;20409;-56
2023/12/07 09:28:25;;;;;;;0.77;0.43;;;;;;;5.36;100.00;98006.28;5002359;28;20706;-55
2023/12/07 09:30:55;;;;;;;0.40;0.40;;;;;;;5.33;100.00;98006.38;4992198;28;20131;-55
2023/12/07 09:33:26;;;;;;;0.57;0.57;;;;;;;5.34;100.00;98013.25;4995798;28;20136;-54
2023/12/07 09:35:56;;;;;;;1.20;0.50;;;;;;;5.34;100.00;97987.34;5002190;28;20058;-56
2023/12/07 09:38:28;;;;;;;2.40;0.50;;;;;;;5.32;100.00;98002.13;4994151;28;20052;-56
2023/12/07 09:40:59;;;;;;;0.65;0.40;;;;;;;5.34;100.00;97995.13;5016495;28;20119;-57
2023/12/07 09:43:30;;;;;;;1.38;0.50;;;;;;;5.37;100.00;97989.88;5011855;28;20068;-55
2023/12/07 09:46:01;;;;;;;4.78;0.63;;;;;;;5.33;100.00;97970.97;5022430;28;20052;-56
2023/12/07 09:48:33;;;;;;;0.95;0.50;;;;;;;5.29;100.00;97973.72;5011989;28;20076;-56
2023/12/07 09:51:08;;;;;;;1.85;0.60;;;;;;;5.18;100.00;97977.47;5025935;28;20049;-55
2023/12/07 09:53:42;;;;;;;2.30;0.90;;;;;;;5.09;100.00;97988.16;5015856;28;20049;-56
2023/12/07 09:56:12;;;;;;;1.10;0.80;;;;;;;5.07;100.00;97984.75;5025825;28;20068;-55
2023/12/07 09:58:43;;;;;;;2.58;0.75;;;;;;;5.06;100.00;97982.19;5015571;28;20475;-56
2023/12/07 10:01:14;;;;;;;1.98;0.70;;;;;;;5.05;100.00;97981.34;5007301;28;20439;-56
2023/12/07 10:03:46;;;;;;;1.83;0.88;;;;;;;4.99;100.00;97960.81;4996030;28;20055;-58
2023/12/07 10:06:18;;;;;;;0.93;0.65;;;;;;;4.97;100.00;97975.56;5006365;28;20073;-59
2023/12/07 10:08:51;;;;;;;3.50;0.90;;;;;;;4.90;100.00;97974.06;4995281;28;20136;-54
2023/12/07 10:11:21;;;;;;;3.95;0.80;;;;;;;4.82;100.00;97960.47;5003082;28;20052;-55
2023/12/07 10:13:52;;;;;;;4.25;0.70;;;;;;;4.78;100.00;97956.31;4987803;28;20057;-56
2023/12/07 10:16:24;;;;;;;1.25;0.65;;;;;;;4.79;100.00;97955.41;5005531;28;20045;-58
2023/12/07 10:18:55;;;;;;;2.25;1.00;;;;;;;4.82;100.00;97947.56;4992853;28;20057;-55
2023/12/07 10:21:34;;;;;;;1.38;0.70;;;;;;;4.75;100.00;97926.22;4998299;28;20664;-56
2023/12/07 10:24:06;;;;;;;3.22;1.00;;;;;;;4.82;100.00;97939.78;5005609;28;20049;-55
2023/12/07 10:26:38;;;;;;;1.98;0.80;;;;;;;4.83;100.00;97920.81;4995270;28;20041;-58
2023/12/07 10:29:09;;;;;;;5.95;1.40;;;;;;;4.88;100.00;97916.34;5005376;28;20057;-56
2023/12/07 10:32:02;;;;;;;6.05;1.50;;;;;;;4.90;100.00;97914.53;4993025;28;20055;-56
2023/12/07 10:34:35;;;;;;;6.60;1.67;;;;;;;4.78;100.00;97896.81;4993239;28;20107;-56
2023/12/07 10:37:06;;;;;;;5.88;2.00;;;;;;;5.04;100.00;97896.84;5004875;28;20500;-54
2023/12/07 10:39:38;;;;;;;5.32;1.90;;;;;;;5.15;100.00;97915.47;4995719;28;20060;-57
2023/12/07 10:42:13;;;;;;;8.40;2.50;;;;;;;5.25;100.00;97904.81;5005291;28;20883;-55
2023/12/07 10:44:46;;;;;;;7.78;1.80;;;;;;;5.26;100.00;97890.97;4992391;28;20045;-56
2023/12/07 10:47:18;;;;;;;7.18;1.98;;;;;;;5.44;100.00;97902.44;5003229;28;20122;-56
2023/12/07 10:49:55;;;;;;;8.95;2.10;;;;;;;5.30;100.00;97871.84;4991857;28;20073;-55
2023/12/07 10:52:28;;;;;;;16.45;2.80;;;;;;;5.54;100.00;97891.75;4997115;28;20053;-56
2023/12/07 10:55:04;;;;;;;12.07;2.42;;;;;;;5.52;100.00;97880.59;5004605;28;20136;-56
2023/12/07 10:57:37;;;;;;;10.25;3.08;;;;;;;5.55;100.00;97872.69;4993487;28;20081;-57
2023/12/07 11:00:10;;;;;;;9.90;2.53;;;;;;;5.52;100.00;97880.59;5001538;28;20050;-57
2023/12/07 11:02:41;;;;;;;13.52;2.83;;;;;;;5.51;100.00;97876.28;4995431;28;20057;-55
2023/12/07 11:05:13;;;;;;;9.95;2.58;;;;;;;5.52;100.00;97883.19;5005339;28;20053;-56
2023/12/07 11:07:54;;;;;;;11.43;2.70;;;;;;;5.39;100.00;97855.97;4996120;28;20057;-58
2023/12/07 11:10:32;;;;;;;11.30;2.80;;;;;;;5.45;100.00;97881.69;5004120;28;20146;-57
2023/12/07 11:13:13;;;;;;;8.13;2.38;;;;;;;5.45;100.00;97881.69;5005252;28;20081;-57
2023/12/07 11:15:43;;;;;;;10.02;2.80;;;;;;;5.48;100.00;97870.38;4995558;28;20064;-59
2023/12/07 11:18:15;;;;;;;16.50;3.85;;;;;;;5.45;100.00;97876.50;5006018;28;20037;-56
2023/12/07 11:20:47;;;;;;;13.15;2.95;;;;;;;5.39;100.00;97887.06;4995489;28;20491;-56
2023/12/07 11:23:19;;;;;;;15.27;3.92;;;;;;;5.41;100.00;97885.25;5005273;28;20132;-56
2023/12/07 11:25:54;;;;;;;11.52;3.03;;;;;;;5.37;100.00;97883.69;4994576;28;20133;-55
2023/12/07 11:28:38;;;;;;;19.75;3.42;;;;;;;5.35;100.00;97890.66;4999673;28;20144;-57
2023/12/07 11:31:09;;;;;;;17.98;3.45;;;;;;;5.30;100.00;97877.03;5004884;28;20049;-58
2023/12/07 11:33:40;;;;;;;14.13;3.63;;;;;;;5.27;100.00;97883.16;4994961;28;20064;-58
2023/12/07 11:36:13;;;;;;;25.38;4.03;;;;;;;4.95;100.00;97842.78;5004763;28;20053;-57
2023/12/07 11:39:16;;;;;;;14.07;3.00;;;;;;;5.11;100.00;97882.78;4994540;28;20063;-59
2023/12/07 11:42:09;;;;;;;18.00;2.95;;;;;;;5.04;100.00;97886.50;4975357;28;20466;-59
2023/12/07 11:44:40;;;;;;;18.15;3.35;;;;;;;4.98;100.00;97877.16;4990627;28;20045;-58
2023/12/07 11:47:12;;;;;;;16.80;3.88;;;;;;;4.64;100.00;97841.19;5015365;28;20049;-57
2023/12/07 11:49:44;;;;;;;20.20;3.63;;;;;;;4.92;100.00;97855.84;5013668;28;20143;-59
2023/12/07 11:52:16;;;;;;;18.77;4.00;;;;;;;4.92;100.00;97866.19;5017794;28;20098;-57
2023/12/07 11:54:47;;;;;;;19.77;3.83;;;;;;;4.89;100.00;97845.56;4995182;28;20103;-58
2023/12/07 11:57:20;;;;;;;13.40;3.42;;;;;;;4.90;100.00;97857.63;5005711;28;20053;-58
2023/12/07 11:59:52;;;;;;;19.30;3.38;;;;;;;4.89;100.00;97850.72;4994589;28;20099;-57
2023/12/07 12:02:23;;;;;;;21.42;4.13;;;;;;;4.85;100.00;97854.34;5004349;28;20369;-57
2023/12/07 12:04:54;;;;;;;18.60;3.20;;;;;;;4.82;100.00;97859.59;4994293;28;20099;-58
2023/12/07 12:07:26;;;;;;;18.15;3.58;;;;;;;4.79;100.00;97862.28;5004496;28;20053;-58
2023/12/07 12:09:57;;;;;;;15.30;2.75;;;;;;;4.74;100.00;97868.47;4994404;28;20488;-60
2023/12/07 12:12:35;;;;;;;12.40;2.97;;;;;;;4.66;100.00;97865.25;4990793;28;20145;-58
2023/12/07 12:15:06;;;;;;;15.02;2.70;;;;;;;4.63;100.00;97855.00;4997806;28;20597;-57
2023/12/07 12:17:37;;;;;;;15.40;2.90;;;;;;;4.62;100.00;97861.06;4986747;28;20042;-59
2023/12/07 12:20:10;;;;;;;14.57;2.70;;;;;;;4.60;100.00;97857.69;5003494;28;20049;-59
2023/12/07 12:22:40;;;;;;;14.02;3.58;;;;;;;4.56;100.00;97843.13;4993525;28;20119;-59
2023/12/07 12:25:12;;;;;;;17.23;2.88;;;;;;;4.51;100.00;97845.03;5003849;28;20041;-58
2023/12/07 12:27:45;;;;;;;18.55;2.92;;;;;;;4.46;100.00;97836.56;4994037;28;20135;-57
2023/12/07 12:30:15;;;;;;;15.07;2.83;;;;;;;4.39;100.00;97824.72;4985198;28;20045;-57
2023/12/07 12:32:46;;;;;;;10.43;2.22;;;;;;;4.33;100.00;97821.41;4989425;28;20055;-58
2023/12/07 12:35:17;;;;;;;11.50;3.00;;;;;;;4.40;100.00;97805.75;5003230;28;20056;-58
2023/12/07 12:37:49;;;;;;;19.15;3.50;;;;;;;4.41;100.00;97817.75;4994125;28;20061;-58
2023/12/07 12:40:21;;;;;;;21.75;3.83;;;;;;;4.33;100.00;97811.06;5003302;28;20045;-57
2023/12/07 12:42:54;;;;;;;17.55;3.08;;;;;;;4.43;100.00;97827.16;4990237;28;20049;-58
2023/12/07 12:45:26;;;;;;;17.00;3.33;;;;;;;4.39;100.00;97809.19;4993891;28;20061;-58
2023/12/07 12:47:56;;;;;;;23.15;3.35;;;;;;;4.46;100.00;97815.88;5001160;28;20104;-58
2023/12/07 12:50:37;;;;;;;16.35;3.40;;;;;;;4.39;100.00;97809.19;4989731;28;20057;-58
2023/12/07 12:53:09;;;;;;;25.13;3.17;;;;;;;4.41;100.00;97802.25;5000883;28;20052;-59
2023/12/07 12:55:41;;;;;;;20.50;3.50;;;;;;;4.36;100.00;97797.22;4992435;28;20072;-58
2023/12/07 12:58:13;;;;;;;20.08;3.40;;;;;;;4.49;100.00;97800.25;5002534;28;20551;-57
2023/12/07 13:00:44;;;;;;;23.58;3.85;;;;;;;4.50;100.00;97817.47;4990777;28;20063;-59
2023/12/07 13:03:15;;;;;;;19.70;3.10;;;;;;;4.54;100.00;97793.19;5003188;28;20060;-58
2023/12/07 13:05:47;;;;;;;19.05;3.50;;;;;;;4.52;100.00;97789.84;4990639;28;20061;-58
2023/12/07 13:08:18;;;;;;;17.75;3.65;;;;;;;4.54;100.00;97781.13;5003289;28;20052;-59
2023/12/07 13:10:48;;;;;;;10.77;2.75;;;;;;;4.54;100.00;97775.09;4993979;28;20046;-58
2023/12/07 13:13:21;;;;;;;17.52;3.05;;;;;;;4.63;100.00;97792.91;5003796;28;20053;-57
2023/12/07 13:15:51;;;;;;;14.10;2.88;;;;;;;4.65;100.00;97791.13;4993034;28;20045;-58
2023/12/07 13:18:21;;;;;;;15.63;2.42;;;;;;;4.65;100.00;97796.31;5002936;28;20144;-59
2023/12/07 13:20:52;;;;;;;11.60;2.45;;;;;;;4.67;100.00;97799.69;4992809;28;20053;-58
2023/12/07 13:23:25;;;;;;;13.70;2.92;;;;;;;4.67;100.00;97812.63;5001280;28;20099;-58
2023/12/07 13:25:55;;;;;;;10.95;2.65;;;;;;;4.69;100.00;97803.09;5007128;28;20096;-58
2023/12/07 13:28:27;;;;;;;23.23;2.45;;;;;;;4.70;100.00;97804.75;4999684;28;20054;-58
2023/12/07 13:30:58;;;;;;;11.23;2.20;;;;;;;4.71;100.00;97816.78;5007019;28;20053;-57
2023/12/07 13:33:28;;;;;;;12.48;2.22;;;;;;;4.69;100.00;97818.59;4997399;28;20059;-57
2023/12/07 13:36:08;;;;;;;9.35;1.98;;;;;;;4.66;100.00;97808.34;5007256;28;20042;-59
2023/12/07 13:38:39;;;;;;;9.35;2.08;;;;;;;4.64;99.79;97817.91;4997001;28;20260;-58
2023/12/07 13:41:09;;;;;;;14.60;2.70;;;;;;;4.66;99.91;97836.78;5006969;28;20057;-57
2023/12/07 13:43:42;;;;;;;10.23;2.40;;;;;;;4.60;99.70;97834.41;4996603;28;20077;-56
2023/12/07 13:46:12;;;;;;;11.05;2.00;;;;;;;4.60;99.60;97834.41;5007133;28;20060;-56
2023/12/07 13:48:43;;;;;;;14.98;2.42;;;;;;;4.56;99.08;97858.66;4997562;28;20057;-57
2023/12/07 13:51:14;;;;;;;14.55;2.30;;;;;;;4.51;99.19;97832.09;5007770;28;20051;-57
2023/12/07 13:53:44;;;;;;;11.32;2.45;;;;;;;4.49;99.05;97862.31;4996786;28;20049;-57
2023/12/07 13:56:15;;;;;;;15.02;2.83;;;;;;;4.45;99.46;97845.22;5006788;28;20103;-56
2023/12/07 13:58:47;;;;;;;12.23;2.10;;;;;;;4.38;99.78;97864.41;4996902;28;20065;-56
2023/12/07 14:01:17;;;;;;;10.13;2.30;;;;;;;4.34;99.85;97863.63;5006546;28;20045;-56
2023/12/07 14:03:48;;;;;;;12.68;2.88;;;;;;;4.26;100.00;97876.78;4996327;28;20136;-56
2023/12/07 14:06:24;;;;;;;11.05;2.10;;;;;;;4.18;100.00;97878.75;5007304;28;20045;-56
2023/12/07 14:08:58;;;;;;;12.60;2.42;;;;;;;4.12;100.00;97878.94;4996428;28;20053;-57
2023/12/07 14:11:28;;;;;;;11.30;2.13;;;;;;;3.88;100.00;97860.63;4996270;28;20060;-56
2023/12/07 14:14:00;;;;;;;14.02;2.95;;;;;;;4.00;100.00;97892.19;5006389;28;20060;-56
2023/12/07 14:16:31;;;;;;;11.90;2.05;;;;;;;3.96;100.00;97895.75;4996144;28;20053;-54
2023/12/07 14:19:20;;;;;;;9.95;1.95;;;;;;;3.63;100.00;97844.13;5005635;28;20049;-56
2023/12/07 14:21:50;;;;;;;6.43;2.28;;;;;;;3.83;100.00;97883.16;5008527;28;20056;-56
2023/12/07 14:24:26;;;;;;;8.45;1.90;;;;;;;3.83;99.30;97885.75;5026491;28;20099;-57
2023/12/07 14:26:56;;;;;;;13.45;2.10;;;;;;;3.77;98.86;97878.19;5015885;28;20048;-56
2023/12/07 14:29:28;;;;;;;5.78;2.13;;;;;;;3.75;98.13;97885.13;5015605;28;20056;-57
2023/12/07 14:31:59;;;;;;;8.77;1.63;;;;;;;3.73;97.04;97884.31;5025569;28;20057;-57
2023/12/07 14:34:33;;;;;;;9.32;2.10;;;;;;;3.69;96.95;97890.44;5015097;28;20083;-59
2023/12/07 14:37:06;;;;;;;5.65;1.83;;;;;;;3.57;96.66;97906.25;5025110;28;20140;-57
2023/12/07 14:39:37;;;;;;;6.07;1.70;;;;;;;3.62;95.95;97925.06;5015988;28;20049;-57
2023/12/07 14:42:08;;;;;;;7.47;2.00;;;;;;;3.58;95.69;97938.94;5010198;28;20484;-57
2023/12/07 14:44:40;;;;;;;7.28;1.73;;;;;;;3.52;96.47;97939.09;4995959;28;20318;-56
2023/12/07 14:47:11;;;;;;;6.40;1.30;;;;;;;3.46;96.45;97938.34;5005864;28;20576;-56
2023/12/07 14:49:41;;;;;;;7.15;1.55;;;;;;;3.42;96.20;97934.19;4995726;28;20057;-57
2023/12/07 14:52:12;;;;;;;4.55;1.50;;;;;;;3.37;96.03;97956.69;5005656;28;20049;-56
2023/12/07 14:54:42;;;;;;;7.38;2.58;;;;;;;3.32;96.55;97955.06;4996287;28;20089;-57
2023/12/07 14:57:13;;;;;;;4.07;1.40;;;;;;;3.25;96.63;97956.97;5005850;28;20132;-56
2023/12/07 14:59:45;;;;;;;3.92;1.42;;;;;;;3.21;97.28;97939.84;4995806;28;20060;-57
2023/12/07 15:02:16;;;;;;;6.72;1.70;;;;;;;3.01;96.80;97912.78;5005982;28;20142;-57
2023/12/07 15:04:46;;;;;;;8.57;2.00;;;;;;;3.14;96.44;97954.63;4996002;28;20105;-57
2023/12/07 15:07:17;;;;;;;4.15;1.60;;;;;;;3.12;95.80;97965.84;5006063;28;20595;-56
2023/12/07 15:09:48;;;;;;;9.00;1.70;;;;;;;3.10;95.68;97975.41;4996596;28;20045;-56
2023/12/07 15:12:19;;;;;;;3.92;1.40;;;;;;;3.07;94.40;97972.88;5006106;28;20076;-58
2023/12/07 15:14:51;;;;;;;5.47;1.48;;;;;;;3.08;94.64;97964.25;4995262;28;20135;-56
2023/12/07 15:17:22;;;;;;;5.03;1.17;;;;;;;3.06;94.57;97950.53;5005670;28;20613;-57
2023/12/07 15:19:52;;;;;;;6.28;1.80;;;;;;;3.05;94.36;97969.50;4994141;28;20053;-58
2023/12/07 15:22:23;;;;;;;4.50;1.30;;;;;;;3.07;93.68;97965.13;5005023;28;20494;-57
2023/12/07 15:24:54;;;;;;;2.10;1.23;;;;;;;3.03;93.21;97975.53;4994431;28;20049;-56
2023/12/07 15:27:25;;;;;;;3.70;1.30;;;;;;;3.01;93.52;97990.19;5004905;28;20072;-57
2023/12/07 15:29:57;;;;;;;2.42;1.13;;;;;;;2.97;92.95;97992.84;5004707;28;20107;-56
2023/12/07 15:32:28;;;;;;;2.08;1.27;;;;;;;2.92;93.76;98025.66;4993988;28;20061;-57
2023/12/07 15:34:58;;;;;;;2.42;1.20;;;;;;;2.86;93.24;98026.63;5004289;28;20079;-57
2023/12/07 15:37:29;;;;;;;3.65;1.05;;;;;;;2.83;93.00;98047.34;4993946;28;20488;-57
2023/12/07 15:40:00;;;;;;;3.65;1.38;;;;;;;2.81;91.55;98072.31;5004694;28;20045;-58
2023/12/07 15:42:31;;;;;;;2.33;0.90;;;;;;;2.78;92.01;98080.94;4995423;28;20157;-56
2023/12/07 15:45:03;;;;;;;1.10;0.85;;;;;;;2.81;91.66;98083.47;5004520;28;20057;-56
2023/12/07 15:47:34;;;;;;;1.02;0.80;;;;;;;2.76;90.95;98097.34;4987279;28;20092;-57
2023/12/07 15:50:05;;;;;;;1.05;0.73;;;;;;;2.74;91.03;98099.09;5004356;28;20053;-56
2023/12/07 15:52:36;;;;;;;1.80;0.70;;;;;;;2.75;90.68;98121.44;4994655;28;20053;-56
2023/12/07 15:55:07;;;;;;;2.08;0.90;;;;;;;2.69;90.71;98098.34;5004888;28;20087;-57
2023/12/07 15:57:38;;;;;;;1.17;0.82;;;;;;;2.71;89.86;98135.25;5015447;28;20052;-57
2023/12/07 16:00:12;;;;;;;1.15;0.80;;;;;;;2.63;89.24;98157.78;5024798;28;20052;-57
2023/12/07 16:02:42;;;;;;;1.02;0.80;;;;;;;2.69;89.32;98183.44;5014535;28;20061;-57
2023/12/07 16:05:13;;;;;;;1.15;0.70;;;;;;;2.64;88.44;98177.50;5024593;28;20053;-57
2023/12/07 16:07:43;;;;;;;1.20;0.80;;;;;;;2.47;85.36;98199.28;5014575;28;20745;-58
2023/12/07 16:10:14;;;;;;;0.93;0.68;;;;;;;2.41;86.09;98220.00;5024440;28;20106;-58
2023/12/07 16:12:44;;;;;;;1.05;0.85;;;;;;;2.30;83.88;98219.34;5014256;28;20110;-57
2023/12/07 16:15:16;;;;;;;4.30;1.00;;;;;;;2.12;83.18;98234.19;5024710;28;20045;-57
2023/12/07 16:17:47;;;;;;;3.30;0.90;;;;;;;2.04;82.55;98236.03;5014122;28;20064;-58
2023/12/07 16:20:20;;;;;;;1.13;1.00;;;;;;;1.98;82.93;98251.56;5036514;28;20048;-58
2023/12/07 16:22:50;;;;;;;3.45;1.00;;;;;;;1.93;82.82;98248.22;5031201;28;20071;-56
2023/12/07 16:25:21;;;;;;;1.58;0.88;;;;;;;1.88;83.36;98273.19;5043910;28;20096;-57
2023/12/07 16:27:52;;;;;;;1.20;0.80;;;;;;;1.83;83.15;98277.53;5033391;28;20101;-56
2023/12/07 16:30:24;;;;;;;1.02;0.93;;;;;;;1.86;83.46;98287.81;5043737;28;20736;-58
2023/12/07 16:32:55;;;;;;;1.50;0.90;;;;;;;1.80;83.68;98272.41;5031118;28;20099;-57
2023/12/07 16:35:26;;;;;;;1.58;0.90;;;;;;;1.75;82.41;98282.78;5016176;28;20063;-58
2023/12/07 16:37:56;;;;;;;0.90;0.80;;;;;;;1.64;81.13;98288.06;5023984;28;20060;-57
2023/12/07 16:40:27;;;;;;;1.45;0.93;;;;;;;1.58;79.38;98293.28;5013722;28;20052;-57
2023/12/07 16:42:58;;;;;;;1.40;0.90;;;;;;;1.54;78.75;98301.06;5024304;28;20044;-58
2023/12/07 16:45:30;;;;;;;2.55;1.10;;;;;;;1.48;78.73;98307.16;5014836;28;20794;-58
2023/12/07 16:48:02;;;;;;;2.70;1.10;;;;;;;1.43;78.80;98317.47;5023769;28;20063;-58
2023/12/07 16:50:33;;;;;;;1.52;0.90;;;;;;;1.41;79.19;98323.50;5014063;28;20717;-59
2023/12/07 16:53:03;;;;;;;1.42;1.10;;;;;;;1.50;79.83;98320.84;5023974;28;20528;-57
2023/12/07 16:55:34;;;;;;;1.10;1.00;;;;;;;1.52;80.38;98313.94;5013795;28;20687;-57
2023/12/07 16:58:04;;;;;;;1.67;1.00;;;;;;;1.43;80.45;98334.66;5023411;28;20671;-58
2023/12/07 17:00:40;;;;;;;1.20;1.02;;;;;;;1.32;78.87;98336.47;5014306;28;20148;-58
2023/12/07 17:03:11;;;;;;;1.13;1.00;;;;;;;1.12;76.51;98350.38;5024092;28;20811;-57
2023/12/07 17:05:43;;;;;;;1.73;1.10;;;;;;;0.97;77.17;98360.78;5013797;28;20049;-57
2023/12/07 17:08:14;;;;;;;1.25;0.85;;;;;;;0.89;76.54;98357.44;5023570;28;20060;-58
2023/12/07 17:10:44;;;;;;;1.40;1.00;;;;;;;0.77;77.22;98366.94;5013368;28;20059;-58
2023/12/07 17:13:15;;;;;;;2.88;1.50;;;;;;;0.66;77.20;98371.31;5028943;28;20048;-57
2023/12/07 17:15:47;;;;;;;1.92;1.20;;;;;;;0.61;77.73;98403.91;5018998;28;20574;-58
2023/12/07 17:18:17;;;;;;;2.92;1.20;;;;;;;0.53;77.93;98410.81;5026840;28;20487;-57
2023/12/07 17:20:48;;;;;;;1.65;1.33;;;;;;;0.44;78.97;98406.56;5014070;28;20053;-58
2023/12/07 17:23:19;;;;;;;1.65;1.10;;;;;;;0.35;79.22;98379.22;5024133;28;20083;-59
2023/12/07 17:25:49;;;;;;;2.35;1.38;;;;;;;0.35;77.99;98381.81;5013888;28;20826;-57
2023/12/07 17:28:20;;;;;;;3.65;1.25;;;;;;;0.30;77.76;98383.53;5023892;28;20049;-56
2023/12/07 17:30:53;;;;;;;2.72;1.30;;;;;;;0.32;77.69;98401.50;5013381;28;20143;-58
2023/12/07 17:33:23;;;;;;;6.65;1.33;;;;;;;0.41;77.98;98443.41;5023165;28;20083;-60
2023/12/07 17:35:54;;;;;;;2.00;1.33;;;;;;;0.38;77.57;98433.16;5008283;28;20620;-59
2023/12/07 17:38:24;;;;;;;1.90;1.10;;;;;;;0.32;77.72;98443.44;5032787;28;20060;-58
2023/12/07 17:40:55;;;;;;;1.75;1.10;;;;;;;0.24;78.47;98431.53;5037685;28;20048;-57
2023/12/07 17:43:25;;;;;;;2.08;1.05;;;;;;;0.18;78.22;98419.56;5032524;28;20111;-59
2023/12/07 17:45:57;;;;;;;2.03;1.38;;;;;;;0.10;78.01;98426.41;5035616;28;20052;-57